Aviation Digital Data Service (ADDS)

Output produced by METARs form (1140 UTC 18 June 2019)
found at http://www.aviationweather.gov/metar/data/
 
METAR text: UIAA 181130Z 03003MPS 9999 FEW050CB 24/11 Q1008 R29/CLRD70 NOSIG RMK QFE697/0930
Conditions at: UIAA (CITA/KADALA , RU) observed 1130 UTC 18 June 2019
Temperature: 24.0°C (75°F)
Dewpoint: 11.0°C (52°F) [RH = 44%]
Pressure (altimeter): 29.76 inches Hg (1008.0 mb)
Winds: from the NNE (30 degrees) at 7 MPH (6 knots; 3.1 m/s)
Visibility: 6 or more miles (10+ km)
Ceiling: at least 12,000 feet AGL
Clouds: few clouds at 5000 feet AGL
Weather: no significant weather observed at this time

METAR text: UIAA 181100Z 03004MPS 9999 FEW050CB 25/11 Q1007 R29/70D NOSIG RMK QFE697/0930
Conditions at: UIAA (CITA/KADALA , RU) observed 1100 UTC 18 June 2019
Temperature: 25.0°C (77°F)
Dewpoint: 11.0°C (52°F) [RH = 41%]
Pressure (altimeter): 29.73 inches Hg (1007.0 mb)
Winds: from the NNE (30 degrees) at 9 MPH (8 knots; 4.1 m/s)
Visibility: 6 or more miles (10+ km)
Ceiling: at least 12,000 feet AGL
Clouds: few clouds at 5000 feet AGL
Weather: no significant weather observed at this time

METAR text: UIAA 181030Z 02006MPS 9999 NSC 26/09 Q1007 R29/CLRD70 NOSIG RMK QFE697/0930
Conditions at: UIAA (CITA/KADALA , RU) observed 1030 UTC 18 June 2019
Temperature: 26.0°C (79°F)
Dewpoint: 9.0°C (48°F) [RH = 34%]
Pressure (altimeter): 29.73 inches Hg (1007.0 mb)
Winds: from the NNE (20 degrees) at 14 MPH (12 knots; 6.2 m/s)
Visibility: 6 or more miles (10+ km)
Ceiling: at least 12,000 feet AGL
Clouds: sky clear below 12,000 feet AGL
Weather: no significant weather observed at this time

METAR text: UIAA 181000Z 16001MPS 9999 NSC 29/06 Q1007 R29/70D NOSIG RMK QFE697/0929
Conditions at: UIAA (CITA/KADALA , RU) observed 1000 UTC 18 June 2019
Temperature: 29.0°C (84°F)
Dewpoint: 6.0°C (43°F) [RH = 23%]
Pressure (altimeter): 29.73 inches Hg (1007.0 mb)
Winds: from the SSE (160 degrees) at 2 MPH (2 knots; 1.0 m/s)
Visibility: 6 or more miles (10+ km)
Ceiling: at least 12,000 feet AGL
Clouds: sky clear below 12,000 feet AGL
Weather: no significant weather observed at this time

METAR text: UIAA 180930Z 18003MPS 9999 NSC 29/06 Q1007 R29/CLRD70 NOSIG RMK QFE697/0929
Conditions at: UIAA (CITA/KADALA , RU) observed 0930 UTC 18 June 2019
Temperature: 29.0°C (84°F)
Dewpoint: 6.0°C (43°F) [RH = 23%]
Pressure (altimeter): 29.73 inches Hg (1007.0 mb)
Winds: from the S (180 degrees) at 7 MPH (6 knots; 3.1 m/s)
Visibility: 6 or more miles (10+ km)
Ceiling: at least 12,000 feet AGL
Clouds: sky clear below 12,000 feet AGL
Weather: no significant weather observed at this time

METAR text: UIAA 180900Z 19003MPS 9999 NSC 29/05 Q1007 R29/CLRD70 NOSIG RMK QFE697/0929
Conditions at: UIAA (CITA/KADALA , RU) observed 0900 UTC 18 June 2019
Temperature: 29.0°C (84°F)
Dewpoint: 5.0°C (41°F) [RH = 22%]
Pressure (altimeter): 29.73 inches Hg (1007.0 mb)
Winds: from the S (190 degrees) at 7 MPH (6 knots; 3.1 m/s)
Visibility: 6 or more miles (10+ km)
Ceiling: at least 12,000 feet AGL
Clouds: sky clear below 12,000 feet AGL
Weather: no significant weather observed at this time

METAR text: UIAA 180830Z 17002MPS 9999 NSC 30/03 Q1007 R29/CLRD70 NOSIG RMK QFE697/0929
Conditions at: UIAA (CITA/KADALA , RU) observed 0830 UTC 18 June 2019
Temperature: 30.0°C (86°F)
Dewpoint: 3.0°C (37°F) [RH = 18%]
Pressure (altimeter): 29.73 inches Hg (1007.0 mb)
Winds: from the S (170 degrees) at 5 MPH (4 knots; 2.1 m/s)
Visibility: 6 or more miles (10+ km)
Ceiling: at least 12,000 feet AGL
Clouds: sky clear below 12,000 feet AGL
Weather: no significant weather observed at this time

METAR text: UIAA 180800Z 15002MPS 120V190 9999 NSC 31/04 Q1007 R29/CLRD70 NOSIG RMK QFE697/0930
Conditions at: UIAA (CITA/KADALA , RU) observed 0800 UTC 18 June 2019
Temperature: 31.0°C (88°F)
Dewpoint: 4.0°C (39°F) [RH = 18%]
Pressure (altimeter): 29.73 inches Hg (1007.0 mb)
Winds: from the SSE (150 degrees) at 5 MPH (4 knots; 2.1 m/s)
Visibility: 6 or more miles (10+ km)
Ceiling: at least 12,000 feet AGL
Clouds: sky clear below 12,000 feet AGL
Weather: no significant weather observed at this time

METAR text: UIAA 180730Z 16002MPS 090V240 9999 NSC 30/03 Q1008 R29/CLRD70 NOSIG RMK QFE697/0930
Conditions at: UIAA (CITA/KADALA , RU) observed 0730 UTC 18 June 2019
Temperature: 30.0°C (86°F)
Dewpoint: 3.0°C (37°F) [RH = 18%]
Pressure (altimeter): 29.76 inches Hg (1008.0 mb)
Winds: from the SSE (160 degrees) at 5 MPH (4 knots; 2.1 m/s)
Visibility: 6 or more miles (10+ km)
Ceiling: at least 12,000 feet AGL
Clouds: sky clear below 12,000 feet AGL
Weather: no significant weather observed at this time

METAR text: UIAA 180700Z VRB01MPS 9999 NSC 30/02 Q1008 R29/70D NOSIG RMK QFE698/0930
Conditions at: UIAA (CITA/KADALA , RU) observed 0700 UTC 18 June 2019
Temperature: 30.0°C (86°F)
Dewpoint: 2.0°C (36°F) [RH = 17%]
Pressure (altimeter): 29.76 inches Hg (1008.0 mb)
Winds: variable direction winds at 2 MPH (2 knots; 1.0 m/s)
Visibility: 6 or more miles (10+ km)
Ceiling: at least 12,000 feet AGL
Clouds: sky clear below 12,000 feet AGL
Weather: no significant weather observed at this time

METAR text: UIAA 180630Z 15002MPS 110V190 9999 NSC 30/04 Q1008 R29/70D NOSIG RMK QFE698/0930
Conditions at: UIAA (CITA/KADALA , RU) observed 0630 UTC 18 June 2019
Temperature: 30.0°C (86°F)
Dewpoint: 4.0°C (39°F) [RH = 19%]
Pressure (altimeter): 29.76 inches Hg (1008.0 mb)
Winds: from the SSE (150 degrees) at 5 MPH (4 knots; 2.1 m/s)
Visibility: 6 or more miles (10+ km)
Ceiling: at least 12,000 feet AGL
Clouds: sky clear below 12,000 feet AGL
Weather: no significant weather observed at this time

METAR text: UIAA 180600Z 20002MPS 130V290 9999 NSC 29/03 Q1008 R29/70D NOSIG RMK QFE698/0931
Conditions at: UIAA (CITA/KADALA , RU) observed 0600 UTC 18 June 2019
Temperature: 29.0°C (84°F)
Dewpoint: 3.0°C (37°F) [RH = 19%]
Pressure (altimeter): 29.76 inches Hg (1008.0 mb)
Winds: from the SSW (200 degrees) at 5 MPH (4 knots; 2.1 m/s)
Visibility: 6 or more miles (10+ km)
Ceiling: at least 12,000 feet AGL
Clouds: sky clear below 12,000 feet AGL
Weather: no significant weather observed at this time

METAR text: UIAA 180530Z 20002MPS 150V260 9999 NSC 30/02 Q1009 R29/70D NOSIG RMK QFE698/0931
Conditions at: UIAA (CITA/KADALA , RU) observed 0530 UTC 18 June 2019
Temperature: 30.0°C (86°F)
Dewpoint: 2.0°C (36°F) [RH = 17%]
Pressure (altimeter): 29.79 inches Hg (1009.0 mb)
Winds: from the SSW (200 degrees) at 5 MPH (4 knots; 2.1 m/s)
Visibility: 6 or more miles (10+ km)
Ceiling: at least 12,000 feet AGL
Clouds: sky clear below 12,000 feet AGL
Weather: no significant weather observed at this time

METAR text: UIAA 180500Z 20002MPS 120V250 9999 NSC 29/02 Q1009 R29/70D NOSIG RMK QFE698/0931
Conditions at: UIAA (CITA/KADALA , RU) observed 0500 UTC 18 June 2019
Temperature: 29.0°C (84°F)
Dewpoint: 2.0°C (36°F) [RH = 18%]
Pressure (altimeter): 29.79 inches Hg (1009.0 mb)
Winds: from the SSW (200 degrees) at 5 MPH (4 knots; 2.1 m/s)
Visibility: 6 or more miles (10+ km)
Ceiling: at least 12,000 feet AGL
Clouds: sky clear below 12,000 feet AGL
Weather: no significant weather observed at this time

METAR text: UIAA 180430Z 19002MPS 9999 NSC 28/04 Q1009 R29/CLRD70 NOSIG RMK QFE699/0932
Conditions at: UIAA (CITA/KADALA , RU) observed 0430 UTC 18 June 2019
Temperature: 28.0°C (82°F)
Dewpoint: 4.0°C (39°F) [RH = 22%]
Pressure (altimeter): 29.79 inches Hg (1009.0 mb)
Winds: from the S (190 degrees) at 5 MPH (4 knots; 2.1 m/s)
Visibility: 6 or more miles (10+ km)
Ceiling: at least 12,000 feet AGL
Clouds: sky clear below 12,000 feet AGL
Weather: no significant weather observed at this time

METAR text: UIAA 180400Z 20002MPS 150V250 9999 NSC 27/05 Q1010 R29/70D NOSIG RMK QFE699/0932
Conditions at: UIAA (CITA/KADALA , RU) observed 0400 UTC 18 June 2019
Temperature: 27.0°C (81°F)
Dewpoint: 5.0°C (41°F) [RH = 24%]
Pressure (altimeter): 29.82 inches Hg (1010.0 mb)
Winds: from the SSW (200 degrees) at 5 MPH (4 knots; 2.1 m/s)
Visibility: 6 or more miles (10+ km)
Ceiling: at least 12,000 feet AGL
Clouds: sky clear below 12,000 feet AGL
Weather: no significant weather observed at this time

METAR text: UIAA 180330Z VRB01MPS 9999 NSC 26/06 Q1010 R29/CLRD70 NOSIG RMK QFE699/0932
Conditions at: UIAA (CITA/KADALA , RU) observed 0330 UTC 18 June 2019
Temperature: 26.0°C (79°F)
Dewpoint: 6.0°C (43°F) [RH = 28%]
Pressure (altimeter): 29.82 inches Hg (1010.0 mb)
Winds: variable direction winds at 2 MPH (2 knots; 1.0 m/s)
Visibility: 6 or more miles (10+ km)
Ceiling: at least 12,000 feet AGL
Clouds: sky clear below 12,000 feet AGL
Weather: no significant weather observed at this time

METAR text: UIAA 180300Z VRB01MPS 9999 NSC 24/07 Q1010 R29/CLRD70 NOSIG RMK QFE699/0932
Conditions at: UIAA (CITA/KADALA , RU) observed 0300 UTC 18 June 2019
Temperature: 24.0°C (75°F)
Dewpoint: 7.0°C (45°F) [RH = 34%]
Pressure (altimeter): 29.82 inches Hg (1010.0 mb)
Winds: variable direction winds at 2 MPH (2 knots; 1.0 m/s)
Visibility: 6 or more miles (10+ km)
Ceiling: at least 12,000 feet AGL
Clouds: sky clear below 12,000 feet AGL
Weather: no significant weather observed at this time

METAR text: UIAA 180230Z VRB01MPS 9999 NSC 22/09 Q1010 R29/CLRD70 NOSIG RMK QFE699/0933
Conditions at: UIAA (CITA/KADALA , RU) observed 0230 UTC 18 June 2019
Temperature: 22.0°C (72°F)
Dewpoint: 9.0°C (48°F) [RH = 43%]
Pressure (altimeter): 29.82 inches Hg (1010.0 mb)
Winds: variable direction winds at 2 MPH (2 knots; 1.0 m/s)
Visibility: 6 or more miles (10+ km)
Ceiling: at least 12,000 feet AGL
Clouds: sky clear below 12,000 feet AGL
Weather: no significant weather observed at this time

METAR text: UIAA 180200Z VRB01MPS 9999 NSC 20/09 Q1010 R29/70D NOSIG RMK QFE699/0933
Conditions at: UIAA (CITA/KADALA , RU) observed 0200 UTC 18 June 2019
Temperature: 20.0°C (68°F)
Dewpoint: 9.0°C (48°F) [RH = 49%]
Pressure (altimeter): 29.82 inches Hg (1010.0 mb)
Winds: variable direction winds at 2 MPH (2 knots; 1.0 m/s)
Visibility: 6 or more miles (10+ km)
Ceiling: at least 12,000 feet AGL
Clouds: sky clear below 12,000 feet AGL
Weather: no significant weather observed at this time

METAR text: UIAA 180130Z VRB01MPS 9999 NSC 20/10 Q1011 R29/CLRD70 NOSIG RMK QFE700/0933
Conditions at: UIAA (CITA/KADALA , RU) observed 0130 UTC 18 June 2019
Temperature: 20.0°C (68°F)
Dewpoint: 10.0°C (50°F) [RH = 53%]
Pressure (altimeter): 29.85 inches Hg (1011.0 mb)
Winds: variable direction winds at 2 MPH (2 knots; 1.0 m/s)
Visibility: 6 or more miles (10+ km)
Ceiling: at least 12,000 feet AGL
Clouds: sky clear below 12,000 feet AGL
Weather: no significant weather observed at this time

METAR text: UIAA 180100Z 00000MPS 9999 NSC 18/10 Q1011 R29/70D NOSIG RMK QFE700/0933
Conditions at: UIAA (CITA/KADALA , RU) observed 0100 UTC 18 June 2019
Temperature: 18.0°C (64°F)
Dewpoint: 10.0°C (50°F) [RH = 59%]
Pressure (altimeter): 29.85 inches Hg (1011.0 mb)
Winds: calm
Visibility: 6 or more miles (10+ km)
Ceiling: at least 12,000 feet AGL
Clouds: sky clear below 12,000 feet AGL
Weather: no significant weather observed at this time

METAR text: UIAA 180030Z VRB01MPS 9999 NSC 16/10 Q1011 R29/70D NOSIG RMK QFE700/0933
Conditions at: UIAA (CITA/KADALA , RU) observed 0030 UTC 18 June 2019
Temperature: 16.0°C (61°F)
Dewpoint: 10.0°C (50°F) [RH = 68%]
Pressure (altimeter): 29.85 inches Hg (1011.0 mb)
Winds: variable direction winds at 2 MPH (2 knots; 1.0 m/s)
Visibility: 6 or more miles (10+ km)
Ceiling: at least 12,000 feet AGL
Clouds: sky clear below 12,000 feet AGL
Weather: no significant weather observed at this time

METAR text: UIAA 180000Z VRB01MPS 9999 NSC 15/10 Q1011 R29/70D NOSIG RMK QFE700/0933
Conditions at: UIAA (CITA/KADALA , RU) observed 0000 UTC 18 June 2019
Temperature: 15.0°C (59°F)
Dewpoint: 10.0°C (50°F) [RH = 72%]
Pressure (altimeter): 29.85 inches Hg (1011.0 mb)
Winds: variable direction winds at 2 MPH (2 knots; 1.0 m/s)
Visibility: 6 or more miles (10+ km)
Ceiling: at least 12,000 feet AGL
Clouds: sky clear below 12,000 feet AGL
Weather: no significant weather observed at this time

METAR text: UIAA 172330Z VRB01MPS 9999 NSC 14/10 Q1011 R29/CLRD70 NOSIG RMK QFE700/0933
Conditions at: UIAA (CITA/KADALA , RU) observed 2330 UTC 17 June 2019
Temperature: 14.0°C (57°F)
Dewpoint: 10.0°C (50°F) [RH = 77%]
Pressure (altimeter): 29.85 inches Hg (1011.0 mb)
Winds: variable direction winds at 2 MPH (2 knots; 1.0 m/s)
Visibility: 6 or more miles (10+ km)
Ceiling: at least 12,000 feet AGL
Clouds: sky clear below 12,000 feet AGL
Weather: no significant weather observed at this time

METAR text: UIAA 172300Z 00000MPS 9999 NSC 14/10 Q1011 R29/CLRD70 NOSIG RMK QFE700/0933
Conditions at: UIAA (CITA/KADALA , RU) observed 2300 UTC 17 June 2019
Temperature: 14.0°C (57°F)
Dewpoint: 10.0°C (50°F) [RH = 77%]
Pressure (altimeter): 29.85 inches Hg (1011.0 mb)
Winds: calm
Visibility: 6 or more miles (10+ km)
Ceiling: at least 12,000 feet AGL
Clouds: sky clear below 12,000 feet AGL
Weather: no significant weather observed at this time

METAR text: UIAA 172230Z 00000MPS 9999 NSC 11/08 Q1011 R29/CLRD70 NOSIG RMK QFE700/0933
Conditions at: UIAA (CITA/KADALA , RU) observed 2230 UTC 17 June 2019
Temperature: 11.0°C (52°F)
Dewpoint: 8.0°C (46°F) [RH = 82%]
Pressure (altimeter): 29.85 inches Hg (1011.0 mb)
Winds: calm
Visibility: 6 or more miles (10+ km)
Ceiling: at least 12,000 feet AGL
Clouds: sky clear below 12,000 feet AGL
Weather: no significant weather observed at this time

METAR text: UIAA 172200Z 00000MPS 9999 NSC 10/08 Q1011 R29/70D NOSIG RMK QFE700/0933
Conditions at: UIAA (CITA/KADALA , RU) observed 2200 UTC 17 June 2019
Temperature: 10.0°C (50°F)
Dewpoint: 8.0°C (46°F) [RH = 87%]
Pressure (altimeter): 29.85 inches Hg (1011.0 mb)
Winds: calm
Visibility: 6 or more miles (10+ km)
Ceiling: at least 12,000 feet AGL
Clouds: sky clear below 12,000 feet AGL
Weather: no significant weather observed at this time

METAR text: UIAA 172130Z 00000MPS 9999 NSC 09/07 Q1010 R29/70D NOSIG RMK QFE699/0933
Conditions at: UIAA (CITA/KADALA , RU) observed 2130 UTC 17 June 2019
Temperature: 9.0°C (48°F)
Dewpoint: 7.0°C (45°F) [RH = 87%]
Pressure (altimeter): 29.82 inches Hg (1010.0 mb)
Winds: calm
Visibility: 6 or more miles (10+ km)
Ceiling: at least 12,000 feet AGL
Clouds: sky clear below 12,000 feet AGL
Weather: no significant weather observed at this time

METAR text: UIAA 172100Z 00000MPS 9999 NSC 09/06 Q1010 R29/70D NOSIG RMK QFE699/0933
Conditions at: UIAA (CITA/KADALA , RU) observed 2100 UTC 17 June 2019
Temperature: 9.0°C (48°F)
Dewpoint: 6.0°C (43°F) [RH = 81%]
Pressure (altimeter): 29.82 inches Hg (1010.0 mb)
Winds: calm
Visibility: 6 or more miles (10+ km)
Ceiling: at least 12,000 feet AGL
Clouds: sky clear below 12,000 feet AGL
Weather: no significant weather observed at this time

METAR text: UIAA 172030Z 29002MPS 9999 NSC 08/06 Q1010 R29/70D NOSIG RMK QFE699/0933
Conditions at: UIAA (CITA/KADALA , RU) observed 2030 UTC 17 June 2019
Temperature: 8.0°C (46°F)
Dewpoint: 6.0°C (43°F) [RH = 87%]
Pressure (altimeter): 29.82 inches Hg (1010.0 mb)
Winds: from the WNW (290 degrees) at 5 MPH (4 knots; 2.1 m/s)
Visibility: 6 or more miles (10+ km)
Ceiling: at least 12,000 feet AGL
Clouds: sky clear below 12,000 feet AGL
Weather: no significant weather observed at this time

METAR text: UIAA 172000Z 30002MPS 9999 NSC 08/06 Q1010 R29/CLRD70 NOSIG RMK QFE699/0932
Conditions at: UIAA (CITA/KADALA , RU) observed 2000 UTC 17 June 2019
Temperature: 8.0°C (46°F)
Dewpoint: 6.0°C (43°F) [RH = 87%]
Pressure (altimeter): 29.82 inches Hg (1010.0 mb)
Winds: from the WNW (300 degrees) at 5 MPH (4 knots; 2.1 m/s)
Visibility: 6 or more miles (10+ km)
Ceiling: at least 12,000 feet AGL
Clouds: sky clear below 12,000 feet AGL
Weather: no significant weather observed at this time

METAR text: UIAA 171930Z 31002MPS 9999 NSC 08/06 Q1010 R29/70D NOSIG RMK QFE699/0932
Conditions at: UIAA (CITA/KADALA , RU) observed 1930 UTC 17 June 2019
Temperature: 8.0°C (46°F)
Dewpoint: 6.0°C (43°F) [RH = 87%]
Pressure (altimeter): 29.82 inches Hg (1010.0 mb)
Winds: from the NW (310 degrees) at 5 MPH (4 knots; 2.1 m/s)
Visibility: 6 or more miles (10+ km)
Ceiling: at least 12,000 feet AGL
Clouds: sky clear below 12,000 feet AGL
Weather: no significant weather observed at this time

METAR text: UIAA 171900Z 31001MPS 9999 NSC 09/07 Q1010 R29/70D NOSIG RMK QFE699/0932
Conditions at: UIAA (CITA/KADALA , RU) observed 1900 UTC 17 June 2019
Temperature: 9.0°C (48°F)
Dewpoint: 7.0°C (45°F) [RH = 87%]
Pressure (altimeter): 29.82 inches Hg (1010.0 mb)
Winds: from the NW (310 degrees) at 2 MPH (2 knots; 1.0 m/s)
Visibility: 6 or more miles (10+ km)
Ceiling: at least 12,000 feet AGL
Clouds: sky clear below 12,000 feet AGL
Weather: no significant weather observed at this time

METAR text: UIAA 171830Z AUTO 32001MPS 9999 NCD 09/07 Q1010 RMK QFE699/0932
Conditions at: UIAA (CITA/KADALA , RU) observed 1830 UTC 17 June 2019
Temperature: 9.0°C (48°F)
Dewpoint: 7.0°C (45°F) [RH = 87%]
Pressure (altimeter): 29.82 inches Hg (1010.0 mb)
Winds: from the NW (320 degrees) at 2 MPH (2 knots; 1.0 m/s)
Visibility: 6 or more miles (10+ km)
Ceiling: at least 12,000 feet AGL
Clouds: sky clear below 12,000 feet AGL
Weather: no significant weather observed at this time

METAR text: UIAA 171800Z AUTO 31003MPS 9999 NCD 10/07 Q1010 RMK QFE699/0932
Conditions at: UIAA (CITA/KADALA , RU) observed 1800 UTC 17 June 2019
Temperature: 10.0°C (50°F)
Dewpoint: 7.0°C (45°F) [RH = 82%]
Pressure (altimeter): 29.82 inches Hg (1010.0 mb)
Winds: from the NW (310 degrees) at 7 MPH (6 knots; 3.1 m/s)
Visibility: 6 or more miles (10+ km)
Ceiling: at least 12,000 feet AGL
Clouds: sky clear below 12,000 feet AGL
Weather: no significant weather observed at this time

METAR text: UIAA 171730Z AUTO 32001MPS 9999 ///006/// 11/08 Q1010 RMK MT OBSC QFE699/0932
Conditions at: UIAA (CITA/KADALA , RU) observed 1730 UTC 17 June 2019
Temperature: 11.0°C (52°F)
Dewpoint: 8.0°C (46°F) [RH = 82%]
Pressure (altimeter): 29.82 inches Hg (1010.0 mb)
Winds: from the NW (320 degrees) at 2 MPH (2 knots; 1.0 m/s)
Visibility: 6 or more miles (10+ km)
Ceiling: unknown
Clouds: missing
Weather: no significant weather observed at this time

METAR text: UIAA 171700Z AUTO VRB01MPS 9999 NCD 11/08 Q1010 RMK QFE699/0932
Conditions at: UIAA (CITA/KADALA , RU) observed 1700 UTC 17 June 2019
Temperature: 11.0°C (52°F)
Dewpoint: 8.0°C (46°F) [RH = 82%]
Pressure (altimeter): 29.82 inches Hg (1010.0 mb)
Winds: variable direction winds at 2 MPH (2 knots; 1.0 m/s)
Visibility: 6 or more miles (10+ km)
Ceiling: at least 12,000 feet AGL
Clouds: sky clear below 12,000 feet AGL
Weather: no significant weather observed at this time

METAR text: UIAA 171630Z AUTO 28001MPS 9999 NCD 11/07 Q1009 RMK QFE699/0932
Conditions at: UIAA (CITA/KADALA , RU) observed 1630 UTC 17 June 2019
Temperature: 11.0°C (52°F)
Dewpoint: 7.0°C (45°F) [RH = 76%]
Pressure (altimeter): 29.79 inches Hg (1009.0 mb)
Winds: from the W (280 degrees) at 2 MPH (2 knots; 1.0 m/s)
Visibility: 6 or more miles (10+ km)
Ceiling: at least 12,000 feet AGL
Clouds: sky clear below 12,000 feet AGL
Weather: no significant weather observed at this time

METAR text: UIAA 171600Z AUTO VRB01MPS 9999 NCD 12/08 Q1009 RMK QFE699/0932
Conditions at: UIAA (CITA/KADALA , RU) observed 1600 UTC 17 June 2019
Temperature: 12.0°C (54°F)
Dewpoint: 8.0°C (46°F) [RH = 76%]
Pressure (altimeter): 29.79 inches Hg (1009.0 mb)
Winds: variable direction winds at 2 MPH (2 knots; 1.0 m/s)
Visibility: 6 or more miles (10+ km)
Ceiling: at least 12,000 feet AGL
Clouds: sky clear below 12,000 feet AGL
Weather: no significant weather observed at this time

METAR text: UIAA 171530Z AUTO 00000MPS 9999 NCD 13/07 Q1009 RMK QFE698/0931
Conditions at: UIAA (CITA/KADALA , RU) observed 1530 UTC 17 June 2019
Temperature: 13.0°C (55°F)
Dewpoint: 7.0°C (45°F) [RH = 67%]
Pressure (altimeter): 29.79 inches Hg (1009.0 mb)
Winds: calm
Visibility: 6 or more miles (10+ km)
Ceiling: at least 12,000 feet AGL
Clouds: sky clear below 12,000 feet AGL
Weather: no significant weather observed at this time

METAR text: UIAA 171500Z AUTO 28002MPS 9999 NCD 13/08 Q1009 RMK QFE698/0931
Conditions at: UIAA (CITA/KADALA , RU) observed 1500 UTC 17 June 2019
Temperature: 13.0°C (55°F)
Dewpoint: 8.0°C (46°F) [RH = 72%]
Pressure (altimeter): 29.79 inches Hg (1009.0 mb)
Winds: from the W (280 degrees) at 5 MPH (4 knots; 2.1 m/s)
Visibility: 6 or more miles (10+ km)
Ceiling: at least 12,000 feet AGL
Clouds: sky clear below 12,000 feet AGL
Weather: no significant weather observed at this time

METAR text: UIAA 171430Z AUTO 29002MPS 9999 NCD 14/09 Q1008 RMK QFE698/0931
Conditions at: UIAA (CITA/KADALA , RU) observed 1430 UTC 17 June 2019
Temperature: 14.0°C (57°F)
Dewpoint: 9.0°C (48°F) [RH = 72%]
Pressure (altimeter): 29.76 inches Hg (1008.0 mb)
Winds: from the WNW (290 degrees) at 5 MPH (4 knots; 2.1 m/s)
Visibility: 6 or more miles (10+ km)
Ceiling: at least 12,000 feet AGL
Clouds: sky clear below 12,000 feet AGL
Weather: no significant weather observed at this time

METAR text: UIAA 171400Z AUTO 29002MPS 9999 NCD 16/09 Q1008 RMK QFE698/0930
Conditions at: UIAA (CITA/KADALA , RU) observed 1400 UTC 17 June 2019
Temperature: 16.0°C (61°F)
Dewpoint: 9.0°C (48°F) [RH = 63%]
Pressure (altimeter): 29.76 inches Hg (1008.0 mb)
Winds: from the WNW (290 degrees) at 5 MPH (4 knots; 2.1 m/s)
Visibility: 6 or more miles (10+ km)
Ceiling: at least 12,000 feet AGL
Clouds: sky clear below 12,000 feet AGL
Weather: no significant weather observed at this time

METAR text: UIAA 171330Z AUTO 29002MPS 9999 NCD 17/10 Q1008 RMK QFE698/0930
Conditions at: UIAA (CITA/KADALA , RU) observed 1330 UTC 17 June 2019
Temperature: 17.0°C (63°F)
Dewpoint: 10.0°C (50°F) [RH = 63%]
Pressure (altimeter): 29.76 inches Hg (1008.0 mb)
Winds: from the WNW (290 degrees) at 5 MPH (4 knots; 2.1 m/s)
Visibility: 6 or more miles (10+ km)
Ceiling: at least 12,000 feet AGL
Clouds: sky clear below 12,000 feet AGL
Weather: no significant weather observed at this time

METAR text: UIAA 171300Z AUTO 28002MPS 230V300 9999 NCD 19/10 Q1008 RMK QFE697/0930
Conditions at: UIAA (CITA/KADALA , RU) observed 1300 UTC 17 June 2019
Temperature: 19.0°C (66°F)
Dewpoint: 10.0°C (50°F) [RH = 56%]
Pressure (altimeter): 29.76 inches Hg (1008.0 mb)
Winds: from the W (280 degrees) at 5 MPH (4 knots; 2.1 m/s)
Visibility: 6 or more miles (10+ km)
Ceiling: at least 12,000 feet AGL
Clouds: sky clear below 12,000 feet AGL
Weather: no significant weather observed at this time

METAR text: UIAA 171230Z AUTO 31002MPS 9999 NCD 22/11 Q1007 RMK QFE697/0930
Conditions at: UIAA (CITA/KADALA , RU) observed 1230 UTC 17 June 2019
Temperature: 22.0°C (72°F)
Dewpoint: 11.0°C (52°F) [RH = 50%]
Pressure (altimeter): 29.73 inches Hg (1007.0 mb)
Winds: from the NW (310 degrees) at 5 MPH (4 knots; 2.1 m/s)
Visibility: 6 or more miles (10+ km)
Ceiling: at least 12,000 feet AGL
Clouds: sky clear below 12,000 feet AGL
Weather: no significant weather observed at this time

METAR text: UIAA 171200Z 26001MPS 9999 NSC 24/08 Q1007 R29/70D NOSIG RMK QFE697/0930
Conditions at: UIAA (CITA/KADALA , RU) observed 1200 UTC 17 June 2019
Temperature: 24.0°C (75°F)
Dewpoint: 8.0°C (46°F) [RH = 36%]
Pressure (altimeter): 29.73 inches Hg (1007.0 mb)
Winds: from the W (260 degrees) at 2 MPH (2 knots; 1.0 m/s)
Visibility: 6 or more miles (10+ km)
Ceiling: at least 12,000 feet AGL
Clouds: sky clear below 12,000 feet AGL
Weather: no significant weather observed at this time

METAR text: UIAA 171130Z 24002MPS 9999 NSC 26/06 Q1007 R29/70D NOSIG RMK QFE697/0930
Conditions at: UIAA (CITA/KADALA , RU) observed 1130 UTC 17 June 2019
Temperature: 26.0°C (79°F)
Dewpoint: 6.0°C (43°F) [RH = 28%]
Pressure (altimeter): 29.73 inches Hg (1007.0 mb)
Winds: from the WSW (240 degrees) at 5 MPH (4 knots; 2.1 m/s)
Visibility: 6 or more miles (10+ km)
Ceiling: at least 12,000 feet AGL
Clouds: sky clear below 12,000 feet AGL
Weather: no significant weather observed at this time

METAR text: UIAA 171100Z VRB01MPS 9999 NSC 28/05 Q1007 R29/CLRD70 NOSIG RMK QFE697/0929
Conditions at: UIAA (CITA/KADALA , RU) observed 1100 UTC 17 June 2019
Temperature: 28.0°C (82°F)
Dewpoint: 5.0°C (41°F) [RH = 23%]
Pressure (altimeter): 29.73 inches Hg (1007.0 mb)
Winds: variable direction winds at 2 MPH (2 knots; 1.0 m/s)
Visibility: 6 or more miles (10+ km)
Ceiling: at least 12,000 feet AGL
Clouds: sky clear below 12,000 feet AGL
Weather: no significant weather observed at this time

METAR text: UIAA 171030Z 20002MPS 160V230 9999 NSC 28/04 Q1007 R29/70D NOSIG RMK QFE697/0929
Conditions at: UIAA (CITA/KADALA , RU) observed 1030 UTC 17 June 2019
Temperature: 28.0°C (82°F)
Dewpoint: 4.0°C (39°F) [RH = 22%]
Pressure (altimeter): 29.73 inches Hg (1007.0 mb)
Winds: from the SSW (200 degrees) at 5 MPH (4 knots; 2.1 m/s)
Visibility: 6 or more miles (10+ km)
Ceiling: at least 12,000 feet AGL
Clouds: sky clear below 12,000 feet AGL
Weather: no significant weather observed at this time

METAR text: UIAA 171000Z 19002MPS 9999 NSC 28/04 Q1007 R29/CLRD70 NOSIG RMK QFE697/0929
Conditions at: UIAA (CITA/KADALA , RU) observed 1000 UTC 17 June 2019
Temperature: 28.0°C (82°F)
Dewpoint: 4.0°C (39°F) [RH = 22%]
Pressure (altimeter): 29.73 inches Hg (1007.0 mb)
Winds: from the S (190 degrees) at 5 MPH (4 knots; 2.1 m/s)
Visibility: 6 or more miles (10+ km)
Ceiling: at least 12,000 feet AGL
Clouds: sky clear below 12,000 feet AGL
Weather: no significant weather observed at this time

METAR text: UIAA 170930Z 25003MPS 210V290 9999 NSC 28/05 Q1007 R29/CLRD70 NOSIG RMK QFE697/0929
Conditions at: UIAA (CITA/KADALA , RU) observed 0930 UTC 17 June 2019
Temperature: 28.0°C (82°F)
Dewpoint: 5.0°C (41°F) [RH = 23%]
Pressure (altimeter): 29.73 inches Hg (1007.0 mb)
Winds: from the WSW (250 degrees) at 7 MPH (6 knots; 3.1 m/s)
Visibility: 6 or more miles (10+ km)
Ceiling: at least 12,000 feet AGL
Clouds: sky clear below 12,000 feet AGL
Weather: no significant weather observed at this time

METAR text: UIAA 170900Z 26002MPS 210V280 9999 NSC 28/04 Q1007 R29/70D NOSIG RMK QFE697/0929
Conditions at: UIAA (CITA/KADALA , RU) observed 0900 UTC 17 June 2019
Temperature: 28.0°C (82°F)
Dewpoint: 4.0°C (39°F) [RH = 22%]
Pressure (altimeter): 29.73 inches Hg (1007.0 mb)
Winds: from the W (260 degrees) at 5 MPH (4 knots; 2.1 m/s)
Visibility: 6 or more miles (10+ km)
Ceiling: at least 12,000 feet AGL
Clouds: sky clear below 12,000 feet AGL
Weather: no significant weather observed at this time

METAR text: UIAA 170830Z VRB02MPS 9999 NSC 28/04 Q1007 R29/CLRD70 NOSIG RMK QFE697/0929
Conditions at: UIAA (CITA/KADALA , RU) observed 0830 UTC 17 June 2019
Temperature: 28.0°C (82°F)
Dewpoint: 4.0°C (39°F) [RH = 22%]
Pressure (altimeter): 29.73 inches Hg (1007.0 mb)
Winds: variable direction winds at 5 MPH (4 knots; 2.1 m/s)
Visibility: 6 or more miles (10+ km)
Ceiling: at least 12,000 feet AGL
Clouds: sky clear below 12,000 feet AGL
Weather: no significant weather observed at this time

METAR text: UIAA 170800Z VRB01MPS 9999 NSC 29/05 Q1007 R29/70D NOSIG RMK QFE697/0929
Conditions at: UIAA (CITA/KADALA , RU) observed 0800 UTC 17 June 2019
Temperature: 29.0°C (84°F)
Dewpoint: 5.0°C (41°F) [RH = 22%]
Pressure (altimeter): 29.73 inches Hg (1007.0 mb)
Winds: variable direction winds at 2 MPH (2 knots; 1.0 m/s)
Visibility: 6 or more miles (10+ km)
Ceiling: at least 12,000 feet AGL
Clouds: sky clear below 12,000 feet AGL
Weather: no significant weather observed at this time

METAR text: UIAA 170730Z VRB01MPS 9999 NSC 28/05 Q1007 R29/70D NOSIG RMK QFE697/0929
Conditions at: UIAA (CITA/KADALA , RU) observed 0730 UTC 17 June 2019
Temperature: 28.0°C (82°F)
Dewpoint: 5.0°C (41°F) [RH = 23%]
Pressure (altimeter): 29.73 inches Hg (1007.0 mb)
Winds: variable direction winds at 2 MPH (2 knots; 1.0 m/s)
Visibility: 6 or more miles (10+ km)
Ceiling: at least 12,000 feet AGL
Clouds: sky clear below 12,000 feet AGL
Weather: no significant weather observed at this time

METAR text: UIAA 170700Z 27003MPS 230V310 9999 NSC 28/04 Q1007 R29/70D NOSIG RMK QFE697/0930
Conditions at: UIAA (CITA/KADALA , RU) observed 0700 UTC 17 June 2019
Temperature: 28.0°C (82°F)
Dewpoint: 4.0°C (39°F) [RH = 22%]
Pressure (altimeter): 29.73 inches Hg (1007.0 mb)
Winds: from the W (270 degrees) at 7 MPH (6 knots; 3.1 m/s)
Visibility: 6 or more miles (10+ km)
Ceiling: at least 12,000 feet AGL
Clouds: sky clear below 12,000 feet AGL
Weather: no significant weather observed at this time

METAR text: UIAA 170630Z VRB01MPS 9999 NSC 28/05 Q1007 R29/CLRD70 NOSIG RMK QFE697/0930
Conditions at: UIAA (CITA/KADALA , RU) observed 0630 UTC 17 June 2019
Temperature: 28.0°C (82°F)
Dewpoint: 5.0°C (41°F) [RH = 23%]
Pressure (altimeter): 29.73 inches Hg (1007.0 mb)
Winds: variable direction winds at 2 MPH (2 knots; 1.0 m/s)
Visibility: 6 or more miles (10+ km)
Ceiling: at least 12,000 feet AGL
Clouds: sky clear below 12,000 feet AGL
Weather: no significant weather observed at this time

METAR text: UIAA 170600Z VRB01MPS 9999 NSC 28/05 Q1008 R29/70D NOSIG RMK QFE697/0930
Conditions at: UIAA (CITA/KADALA , RU) observed 0600 UTC 17 June 2019
Temperature: 28.0°C (82°F)
Dewpoint: 5.0°C (41°F) [RH = 23%]
Pressure (altimeter): 29.76 inches Hg (1008.0 mb)
Winds: variable direction winds at 2 MPH (2 knots; 1.0 m/s)
Visibility: 6 or more miles (10+ km)
Ceiling: at least 12,000 feet AGL
Clouds: sky clear below 12,000 feet AGL
Weather: no significant weather observed at this time

METAR text: UIAA 170530Z 21002MPS 100V250 9999 NSC 27/04 Q1008 R29/70D NOSIG RMK QFE698/0930
Conditions at: UIAA (CITA/KADALA , RU) observed 0530 UTC 17 June 2019
Temperature: 27.0°C (81°F)
Dewpoint: 4.0°C (39°F) [RH = 23%]
Pressure (altimeter): 29.76 inches Hg (1008.0 mb)
Winds: from the SSW (210 degrees) at 5 MPH (4 knots; 2.1 m/s)
Visibility: 6 or more miles (10+ km)
Ceiling: at least 12,000 feet AGL
Clouds: sky clear below 12,000 feet AGL
Weather: no significant weather observed at this time

METAR text: UIAA 170500Z VRB02MPS 9999 NSC 27/04 Q1008 R29/70D NOSIG RMK QFE698/0931
Conditions at: UIAA (CITA/KADALA , RU) observed 0500 UTC 17 June 2019
Temperature: 27.0°C (81°F)
Dewpoint: 4.0°C (39°F) [RH = 23%]
Pressure (altimeter): 29.76 inches Hg (1008.0 mb)
Winds: variable direction winds at 5 MPH (4 knots; 2.1 m/s)
Visibility: 6 or more miles (10+ km)
Ceiling: at least 12,000 feet AGL
Clouds: sky clear below 12,000 feet AGL
Weather: no significant weather observed at this time

METAR text: UIAA 170430Z VRB01MPS 9999 NSC 27/03 Q1008 R29/CLRD70 NOSIG RMK QFE698/0931
Conditions at: UIAA (CITA/KADALA , RU) observed 0430 UTC 17 June 2019
Temperature: 27.0°C (81°F)
Dewpoint: 3.0°C (37°F) [RH = 21%]
Pressure (altimeter): 29.76 inches Hg (1008.0 mb)
Winds: variable direction winds at 2 MPH (2 knots; 1.0 m/s)
Visibility: 6 or more miles (10+ km)
Ceiling: at least 12,000 feet AGL
Clouds: sky clear below 12,000 feet AGL
Weather: no significant weather observed at this time

METAR text: UIAA 170400Z VRB01MPS 9999 NSC 26/04 Q1009 R29/CLRD70 NOSIG RMK QFE698/0931
Conditions at: UIAA (CITA/KADALA , RU) observed 0400 UTC 17 June 2019
Temperature: 26.0°C (79°F)
Dewpoint: 4.0°C (39°F) [RH = 24%]
Pressure (altimeter): 29.79 inches Hg (1009.0 mb)
Winds: variable direction winds at 2 MPH (2 knots; 1.0 m/s)
Visibility: 6 or more miles (10+ km)
Ceiling: at least 12,000 feet AGL
Clouds: sky clear below 12,000 feet AGL
Weather: no significant weather observed at this time

METAR text: UIAA 170330Z VRB01MPS 9999 NSC 25/06 Q1009 R29/70D NOSIG RMK QFE698/0931
Conditions at: UIAA (CITA/KADALA , RU) observed 0330 UTC 17 June 2019
Temperature: 25.0°C (77°F)
Dewpoint: 6.0°C (43°F) [RH = 30%]
Pressure (altimeter): 29.79 inches Hg (1009.0 mb)
Winds: variable direction winds at 2 MPH (2 knots; 1.0 m/s)
Visibility: 6 or more miles (10+ km)
Ceiling: at least 12,000 feet AGL
Clouds: sky clear below 12,000 feet AGL
Weather: no significant weather observed at this time

METAR text: UIAA 170300Z VRB01MPS 9999 NSC 25/07 Q1009 R29/70D NOSIG RMK QFE698/0931
Conditions at: UIAA (CITA/KADALA , RU) observed 0300 UTC 17 June 2019
Temperature: 25.0°C (77°F)
Dewpoint: 7.0°C (45°F) [RH = 32%]
Pressure (altimeter): 29.79 inches Hg (1009.0 mb)
Winds: variable direction winds at 2 MPH (2 knots; 1.0 m/s)
Visibility: 6 or more miles (10+ km)
Ceiling: at least 12,000 feet AGL
Clouds: sky clear below 12,000 feet AGL
Weather: no significant weather observed at this time

METAR text: UIAA 170230Z VRB01MPS 9999 NSC 23/07 Q1009 R29/70D NOSIG RMK QFE698/0931
Conditions at: UIAA (CITA/KADALA , RU) observed 0230 UTC 17 June 2019
Temperature: 23.0°C (73°F)
Dewpoint: 7.0°C (45°F) [RH = 36%]
Pressure (altimeter): 29.79 inches Hg (1009.0 mb)
Winds: variable direction winds at 2 MPH (2 knots; 1.0 m/s)
Visibility: 6 or more miles (10+ km)
Ceiling: at least 12,000 feet AGL
Clouds: sky clear below 12,000 feet AGL
Weather: no significant weather observed at this time

METAR text: UIAA 170200Z VRB01MPS 9999 NSC 21/07 Q1009 R29/70D NOSIG RMK QFE699/0932
Conditions at: UIAA (CITA/KADALA , RU) observed 0200 UTC 17 June 2019
Temperature: 21.0°C (70°F)
Dewpoint: 7.0°C (45°F) [RH = 40%]
Pressure (altimeter): 29.79 inches Hg (1009.0 mb)
Winds: variable direction winds at 2 MPH (2 knots; 1.0 m/s)
Visibility: 6 or more miles (10+ km)
Ceiling: at least 12,000 feet AGL
Clouds: sky clear below 12,000 feet AGL
Weather: no significant weather observed at this time

METAR text: UIAA 170130Z VRB01MPS 9999 NSC 20/08 Q1009 R29/CLRD70 NOSIG RMK QFE699/0932
Conditions at: UIAA (CITA/KADALA , RU) observed 0130 UTC 17 June 2019
Temperature: 20.0°C (68°F)
Dewpoint: 8.0°C (46°F) [RH = 46%]
Pressure (altimeter): 29.79 inches Hg (1009.0 mb)
Winds: variable direction winds at 2 MPH (2 knots; 1.0 m/s)
Visibility: 6 or more miles (10+ km)
Ceiling: at least 12,000 feet AGL
Clouds: sky clear below 12,000 feet AGL
Weather: no significant weather observed at this time

METAR text: UIAA 170100Z VRB01MPS 9999 NSC 19/08 Q1009 R29/CLRD70 NOSIG RMK QFE699/0932
Conditions at: UIAA (CITA/KADALA , RU) observed 0100 UTC 17 June 2019
Temperature: 19.0°C (66°F)
Dewpoint: 8.0°C (46°F) [RH = 49%]
Pressure (altimeter): 29.79 inches Hg (1009.0 mb)
Winds: variable direction winds at 2 MPH (2 knots; 1.0 m/s)
Visibility: 6 or more miles (10+ km)
Ceiling: at least 12,000 feet AGL
Clouds: sky clear below 12,000 feet AGL
Weather: no significant weather observed at this time

METAR text: UIAA 170030Z VRB01MPS 9999 NSC 18/08 Q1010 R29/CLRD70 NOSIG RMK QFE699/0932
Conditions at: UIAA (CITA/KADALA , RU) observed 0030 UTC 17 June 2019
Temperature: 18.0°C (64°F)
Dewpoint: 8.0°C (46°F) [RH = 52%]
Pressure (altimeter): 29.82 inches Hg (1010.0 mb)
Winds: variable direction winds at 2 MPH (2 knots; 1.0 m/s)
Visibility: 6 or more miles (10+ km)
Ceiling: at least 12,000 feet AGL
Clouds: sky clear below 12,000 feet AGL
Weather: no significant weather observed at this time

METAR text: UIAA 170000Z 00000MPS 9999 NSC 16/07 Q1010 R29/CLRD70 NOSIG RMK QFE699/0932
Conditions at: UIAA (CITA/KADALA , RU) observed 0000 UTC 17 June 2019
Temperature: 16.0°C (61°F)
Dewpoint: 7.0°C (45°F) [RH = 55%]
Pressure (altimeter): 29.82 inches Hg (1010.0 mb)
Winds: calm
Visibility: 6 or more miles (10+ km)
Ceiling: at least 12,000 feet AGL
Clouds: sky clear below 12,000 feet AGL
Weather: no significant weather observed at this time

Forecast for: UIAA (CITA/KADALA , RU)
Text: TAF UIAA 181100Z 1812/1912 30003G08MPS 9999 SCT030CB
Forecast period: 1200 UTC 18 June 2019 to 1200 UTC 19 June 2019
Forecast type: FROM: standard forecast or significant change
Winds: from the WNW (300 degrees) at 7 MPH (6 knots; 3.1 m/s)
gusting to 18 MPH (16 knots; 8.2 m/s)
Visibility: 6 or more miles 10+ km)
Ceiling: at least 12,000 feet AGL
Clouds: scattered clouds at 3000 feet AGL
Weather: no significant weather forecast for this period
Text: TEMPO 1812/1822 36005G10MPS
Forecast period: 1200 to 2200 UTC 18 June 2019
Forecast type: TEMPORARY: The following changes expected for less than half the time period
Winds: from the N (360 degrees) at 12 MPH (10 knots; 5.1 m/s)
gusting to 22 MPH (19 knots; 9.8 m/s)
Visibility: missing
Ceiling: unknown
Clouds: missing
Weather: no significant weather forecast for this period
Text: TEMPO 1906/1912 VRB10MPS -TSRA
Forecast period: 0600 to 1200 UTC 19 June 2019
Forecast type: TEMPORARY: The following changes expected for less than half the time period
Winds: variable direction winds at 22 MPH (19 knots; 9.8 m/s)
Visibility: missing
Ceiling: unknown
Clouds: missing
Weather: -TSRA  (light rain associated with thunderstorm(s))